Needham Heights, Massachusetts
Current Conditions -  °F | °C
As of 2:27 PM on Thursday 27 Nov 2014 (Local Time) from KOWD Reporting Station
Overcast Overcast  
Wind Chill: 33°   Ceiling: 2100
Heat Index: 38°   Visibility: 10mi
Dew Point: 31°   Wind: 7mph
Humidity: 76%   Direction: 310°NW
Pressure: 29.95"   Gusts: NA
Location:  42.2971°N, 71.227°W
Report Text: KOWD 271927Z 31006KT 10SM BKN021 OVC045 03/M01 A2995 RMK AO2 T00331006
Loading
Personal Weather Stations






























Interactive Weather Map New forecast layout! Learn more

10-Day Weather Forecast

Advertisements
Track Severe Weather on mobile